Time;durP1;ratioP1;P1;durP2;ratioP2;P2;SDS_P1;SDS_P2;PMS_P1;PMS_P2;Temp;Humidity;BMP_temperature;BMP_pressure;BME280_temperature;BME280_humidity;BME280_pressure;Samples;Min_cycle;Max_cycle;Signal;HPM_P1;HPM_P2
2022/07/24 00:02:35;;;;;;;0.45;0.22;;;;;;;16.83;100.00;101934.41;10501959;28;20787;-75
2022/07/24 00:07:37;;;;;;;0.70;0.40;;;;;;;16.80;100.00;101933.50;10484495;28;20052;-74
2022/07/24 00:12:39;;;;;;;0.77;0.50;;;;;;;17.06;100.00;101932.19;10477440;28;20051;-74
2022/07/24 00:17:41;;;;;;;0.63;0.38;;;;;;;17.12;100.00;101932.31;10494286;28;20048;-75
2022/07/24 00:22:43;;;;;;;1.20;0.57;;;;;;;17.10;100.00;101929.66;10477276;28;20040;-74
2022/07/24 00:27:44;;;;;;;0.50;0.50;;;;;;;17.19;100.00;101912.44;10501433;28;20425;-75
2022/07/24 00:32:46;;;;;;;1.60;0.43;;;;;;;17.09;100.00;101922.69;10493897;28;20041;-74
2022/07/24 00:37:48;;;;;;;1.58;1.42;;;;;;;17.18;100.00;101918.47;10493642;28;20056;-75
2022/07/24 00:42:51;;;;;;;0.85;0.70;;;;;;;17.18;100.00;101916.78;10494632;28;20052;-75
2022/07/24 00:47:53;;;;;;;2.05;0.85;;;;;;;17.16;100.00;101915.00;10494426;28;20052;-75
2022/07/24 00:52:58;;;;;;;0.55;0.40;;;;;;;17.28;100.00;101912.56;10494365;28;20040;-74
2022/07/24 00:58:01;;;;;;;0.65;0.55;;;;;;;17.09;100.00;101924.44;10499469;28;20054;-74
2022/07/24 01:03:05;;;;;;;0.47;0.32;;;;;;;17.10;100.00;101919.25;10495900;28;20056;-75
2022/07/24 01:08:07;;;;;;;0.73;0.32;;;;;;;16.99;100.00;101910.41;10495609;28;20531;-75
2022/07/24 01:13:09;;;;;;;0.20;0.20;;;;;;;17.06;100.00;101912.25;10499495;28;20044;-75
2022/07/24 01:18:11;;;;;;;0.20;0.20;;;;;;;17.04;100.00;101913.09;10498915;28;20545;-75
2022/07/24 01:23:13;;;;;;;0.28;0.20;;;;;;;16.95;100.00;101912.09;10495984;28;20123;-75
2022/07/24 01:28:15;;;;;;;0.63;0.40;;;;;;;16.81;100.00;101900.56;10498612;28;20476;-75
2022/07/24 01:33:18;;;;;;;0.40;0.30;;;;;;;16.63;100.00;101902.00;10498283;28;20071;-75
2022/07/24 01:38:19;;;;;;;0.40;0.25;;;;;;;16.46;100.00;101909.53;10492812;28;20041;-75
2022/07/24 01:43:21;;;;;;;0.10;0.10;;;;;;;16.41;100.00;101911.16;10498200;28;20467;-75
2022/07/24 01:48:23;;;;;;;0.57;0.45;;;;;;;16.26;100.00;101905.69;10495518;28;20094;-75
2022/07/24 01:53:24;;;;;;;0.35;0.30;;;;;;;16.22;100.00;101906.47;10488288;28;20049;-75
2022/07/24 01:58:26;;;;;;;1.58;0.35;;;;;;;16.29;100.00;101901.41;10484310;28;20563;-78
2022/07/24 02:03:31;;;;;;;0.90;0.50;;;;;;;16.17;100.00;101891.66;10472172;28;20856;-77
2022/07/24 02:08:33;;;;;;;0.30;0.30;;;;;;;16.07;100.00;101889.72;10488567;28;20544;-77
2022/07/24 02:13:34;;;;;;;0.20;0.20;;;;;;;16.06;100.00;101887.97;10486321;28;20071;-78
2022/07/24 02:18:39;;;;;;;1.15;0.63;;;;;;;16.06;100.00;101887.97;10462800;28;20086;-78
2022/07/24 02:23:41;;;;;;;1.10;0.80;;;;;;;16.03;100.00;101882.75;10497864;28;20051;-78
2022/07/24 02:28:42;;;;;;;0.52;0.35;;;;;;;16.15;100.00;101872.56;10489978;28;20163;-78
2022/07/24 02:33:44;;;;;;;1.75;1.15;;;;;;;16.17;100.00;101876.06;10490488;28;20040;-78
2022/07/24 02:38:46;;;;;;;0.85;0.70;;;;;;;16.07;100.00;101874.13;10489108;28;20106;-77
2022/07/24 02:43:47;;;;;;;1.00;0.75;;;;;;;16.21;100.00;101860.50;10497175;28;20040;-78
2022/07/24 02:48:49;;;;;;;2.13;1.05;;;;;;;16.16;100.00;101866.50;10494036;28;20055;-78
2022/07/24 02:53:51;;;;;;;0.40;0.40;;;;;;;16.19;100.00;101863.09;10477979;28;20041;-78
2022/07/24 02:58:55;;;;;;;0.90;0.82;;;;;;;16.17;100.00;101873.47;10488567;28;20128;-78
2022/07/24 03:03:57;;;;;;;0.60;0.60;;;;;;;16.21;100.00;101865.72;10505336;28;20480;-78
2022/07/24 03:08:59;;;;;;;1.75;0.52;;;;;;;16.15;100.00;101862.16;10499566;28;20040;-77
2022/07/24 03:14:01;;;;;;;1.88;0.85;;;;;;;16.23;100.00;101864.03;10491714;28;20044;-78
2022/07/24 03:19:03;;;;;;;0.40;0.30;;;;;;;16.37;100.00;101857.34;10504589;28;20570;-78
2022/07/24 03:24:06;;;;;;;1.70;0.82;;;;;;;16.18;100.00;101854.44;10470408;28;20037;-78
2022/07/24 03:29:08;;;;;;;0.88;0.50;;;;;;;16.32;100.00;101846.00;10492784;28;20032;-78
2022/07/24 03:34:12;;;;;;;1.42;0.73;;;;;;;16.38;100.00;101840.88;10500515;28;20036;-78
2022/07/24 03:39:14;;;;;;;0.47;0.38;;;;;;;16.34;100.00;101836.50;10502013;28;20052;-78
2022/07/24 03:44:15;;;;;;;1.13;0.50;;;;;;;16.29;100.00;101838.13;10484413;28;20044;-78
2022/07/24 03:49:17;;;;;;;0.25;0.25;;;;;;;16.20;100.00;101837.94;10503407;28;20051;-77
2022/07/24 03:54:19;;;;;;;0.90;0.70;;;;;;;16.29;100.00;101832.91;10500788;28;20045;-78
2022/07/24 03:59:21;;;;;;;1.13;0.63;;;;;;;16.29;100.00;101840.72;10503521;28;20090;-78
2022/07/24 04:04:23;;;;;;;0.52;0.45;;;;;;;16.31;100.00;101844.22;10500998;28;20102;-78
2022/07/24 04:09:25;;;;;;;0.98;0.60;;;;;;;16.32;100.00;101849.44;10491461;28;20053;-78
2022/07/24 04:14:33;;;;;;;0.70;0.52;;;;;;;16.25;100.00;101852.78;10482381;28;20042;-78
2022/07/24 04:19:34;;;;;;;1.98;0.75;;;;;;;16.30;100.00;101850.28;10465292;28;20048;-78
2022/07/24 04:24:36;;;;;;;2.97;1.30;;;;;;;16.28;100.00;101839.84;10493788;28;20507;-78
2022/07/24 04:29:37;;;;;;;0.52;0.52;;;;;;;16.32;100.00;101839.03;10501968;28;20049;-78
2022/07/24 04:34:39;;;;;;;0.80;0.80;;;;;;;16.48;100.00;101850.59;10487790;28;20064;-77
2022/07/24 04:39:41;;;;;;;1.55;0.80;;;;;;;16.54;100.00;101859.34;10492803;28;20057;-78
2022/07/24 04:44:57;;;;;;;2.25;1.20;;;;;;;16.54;100.00;101848.94;10500358;28;20040;-77
2022/07/24 04:49:59;;;;;;;7.80;1.10;;;;;;;16.68;100.00;101846.56;10495423;28;20059;-78
2022/07/24 04:55:00;;;;;;;0.50;0.30;;;;;;;16.83;100.00;101844.19;10501375;28;20043;-78
2022/07/24 05:00:05;;;;;;;1.10;0.85;;;;;;;17.00;100.00;101854.00;10500649;28;20049;-78
2022/07/24 05:05:07;;;;;;;1.42;1.25;;;;;;;16.96;100.00;101855.69;10482606;28;20044;-78
2022/07/24 05:10:13;;;;;;;1.85;1.20;;;;;;;17.01;100.00;101853.16;10490203;28;20509;-78
2022/07/24 05:15:15;;;;;;;1.42;0.70;;;;;;;17.18;100.00;101869.00;10487877;28;20052;-79
2022/07/24 05:20:16;;;;;;;3.55;1.80;;;;;;;17.41;100.00;101883.22;10495658;28;20072;-79
2022/07/24 05:25:18;;;;;;;1.52;0.90;;;;;;;17.75;100.00;101878.44;10485284;28;20047;-78
2022/07/24 05:30:20;;;;;;;1.95;0.98;;;;;;;17.64;100.00;101876.56;10497005;28;20399;-78
2022/07/24 05:35:22;;;;;;;1.95;0.95;;;;;;;17.81;100.00;101880.22;10473046;28;20044;-79
2022/07/24 05:40:29;;;;;;;1.58;0.95;;;;;;;18.03;100.00;101863.13;10475061;28;20075;-78
2022/07/24 05:45:34;;;;;;;1.88;1.45;;;;;;;18.16;100.00;101853.72;10484728;28;20497;-78
2022/07/24 05:50:35;;;;;;;0.73;0.60;;;;;;;18.35;100.00;101854.75;10473519;28;21841;-79
2022/07/24 05:55:37;;;;;;;2.92;1.73;;;;;;;18.61;100.00;101846.25;10487766;28;20045;-79
2022/07/24 06:00:39;;;;;;;1.20;1.10;;;;;;;18.71;100.00;101839.34;10489957;28;20043;-79
2022/07/24 06:05:41;;;;;;;3.38;1.05;;;;;;;18.83;100.00;101839.44;10497803;28;20768;-79
2022/07/24 06:10:42;;;;;;;1.67;1.23;;;;;;;18.83;100.00;101825.50;10484256;28;20053;-79
2022/07/24 06:15:44;;;;;;;1.80;1.35;;;;;;;19.05;100.00;101837.00;10490697;28;20048;-78
2022/07/24 06:20:46;;;;;;;2.65;1.88;;;;;;;19.11;100.00;101836.13;10490692;28;20383;-78
2022/07/24 06:25:50;;;;;;;1.33;1.05;;;;;;;19.37;100.00;101843.25;10498037;28;20040;-78
2022/07/24 06:30:51;;;;;;;2.45;1.33;;;;;;;19.57;100.00;101843.31;10490770;28;20046;-78
2022/07/24 06:35:54;;;;;;;1.42;0.95;;;;;;;19.73;100.00;101841.63;10497453;28;20492;-79
2022/07/24 06:40:55;;;;;;;1.33;1.05;;;;;;;20.07;100.00;101847.84;10496201;28;20048;-78
2022/07/24 06:45:58;;;;;;;1.33;1.10;;;;;;;19.95;100.00;101843.44;10497538;28;20052;-79
2022/07/24 06:51:02;;;;;;;1.42;1.17;;;;;;;20.48;100.00;101851.34;10479706;28;20423;-78
2022/07/24 06:56:04;;;;;;;3.88;1.88;;;;;;;20.53;100.00;101841.72;10497537;28;20040;-79
2022/07/24 07:01:06;;;;;;;4.07;1.95;;;;;;;20.87;100.00;101831.25;10477432;28;20028;-79
2022/07/24 07:06:08;;;;;;;2.70;1.25;;;;;;;21.22;100.00;101843.38;10496517;28;20484;-79
2022/07/24 07:11:09;;;;;;;1.98;1.73;;;;;;;21.83;100.00;101851.88;10496583;28;20048;-79
2022/07/24 07:16:11;;;;;;;2.05;1.40;;;;;;;22.20;100.00;101837.59;10489828;28;20047;-78
2022/07/24 07:21:13;;;;;;;3.40;1.77;;;;;;;22.25;100.00;101845.44;10450750;28;20088;-79
2022/07/24 07:26:15;;;;;;;2.72;1.50;;;;;;;22.35;100.00;101836.63;10485374;28;20037;-79
2022/07/24 07:31:18;;;;;;;1.48;1.00;;;;;;;23.06;100.00;101833.31;10493392;28;20128;-80
2022/07/24 07:36:19;;;;;;;3.22;1.42;;;;;;;23.42;100.00;101825.88;10482081;28;20040;-79
2022/07/24 07:41:22;;;;;;;1.83;1.58;;;;;;;23.34;100.00;101822.50;10483302;28;20052;-80
2022/07/24 07:46:25;;;;;;;5.03;1.92;;;;;;;23.45;100.00;101814.47;10482234;28;20054;-80
2022/07/24 07:51:27;;;;;;;1.88;1.48;;;;;;;24.07;100.00;101814.47;10481819;28;20123;-80
2022/07/24 07:56:31;;;;;;;1.17;1.08;;;;;;;24.01;98.75;101824.22;10489763;28;20107;-80
2022/07/24 08:01:33;;;;;;;1.67;1.30;;;;;;;24.59;99.83;101825.00;10477656;28;20442;-79
2022/07/24 08:06:35;;;;;;;2.22;1.83;;;;;;;24.11;99.27;101809.13;10498726;28;20087;-80
2022/07/24 08:11:37;;;;;;;2.40;1.48;;;;;;;25.21;100.00;101804.50;10485313;28;20044;-79
2022/07/24 08:16:38;;;;;;;2.33;1.52;;;;;;;24.32;90.83;101798.22;10479243;28;20111;-80
2022/07/24 08:21:40;;;;;;;1.77;1.20;;;;;;;24.52;95.89;101794.38;10476884;28;20094;-79
2022/07/24 08:26:42;;;;;;;2.70;1.58;;;;;;;24.60;91.83;101786.34;10476405;28;20535;-80
2022/07/24 08:31:44;;;;;;;1.25;1.08;;;;;;;24.48;78.96;101795.31;10481483;28;20048;-80
2022/07/24 08:36:45;;;;;;;1.48;0.88;;;;;;;25.15;80.07;101813.38;10490584;28;20239;-80
2022/07/24 08:41:47;;;;;;;4.00;2.25;;;;;;;24.95;79.75;101808.50;10486787;28;20045;-80
2022/07/24 08:46:49;;;;;;;3.83;1.30;;;;;;;25.01;77.90;101797.88;10459478;28;20475;-79
2022/07/24 08:51:51;;;;;;;2.38;1.35;;;;;;;25.90;78.34;101789.75;10481853;28;20408;-79
2022/07/24 08:56:53;;;;;;;2.10;1.02;;;;;;;26.00;73.96;101794.81;10479327;28;20060;-80
2022/07/24 09:01:55;;;;;;;2.38;1.15;;;;;;;26.52;70.18;101793.50;10485770;28;20040;-80
2022/07/24 09:06:58;;;;;;;1.08;0.55;;;;;;;26.09;69.54;101797.25;10487727;28;20052;-80
2022/07/24 09:12:14;;;;;;;1.13;0.35;;;;;;;25.86;70.31;101790.75;10464440;28;20465;-81
2022/07/24 09:17:20;;;;;;;0.70;0.50;;;;;;;26.17;66.58;101792.66;10472865;28;20041;-80
2022/07/24 09:22:32;;;;;;;0.45;0.30;;;;;;;26.37;65.40;101785.97;10480977;28;20048;-79
2022/07/24 09:27:36;;;;;;;0.93;0.88;;;;;;;26.29;63.71;101792.34;10477043;28;20407;-80
2022/07/24 09:32:38;;;;;;;0.82;0.50;;;;;;;26.22;64.14;101780.19;10480572;28;20052;-80
2022/07/24 09:37:40;;;;;;;0.00;0.00;;;;;;;26.39;58.74;101784.16;10479870;28;20036;-79
2022/07/24 09:42:42;;;;;;;0.30;0.22;;;;;;;25.83;57.71;101782.88;10467204;28;20059;-80
2022/07/24 09:47:44;;;;;;;0.98;0.28;;;;;;;26.35;59.00;101774.56;10481764;28;20496;-81
2022/07/24 09:52:47;;;;;;;0.03;0.03;;;;;;;27.11;52.88;101770.72;10494392;28;20040;-82
2022/07/24 09:57:49;;;;;;;0.00;0.00;;;;;;;26.88;53.55;101752.91;10488112;28;20503;-81
2022/07/24 10:02:57;;;;;;;0.10;0.10;;;;;;;26.84;54.33;101743.31;10494507;28;20060;-81
2022/07/24 10:08:01;;;;;;;0.28;0.20;;;;;;;27.65;58.91;101741.75;10495372;28;20055;-80
2022/07/24 10:13:05;;;;;;;1.42;0.20;;;;;;;27.85;54.63;101739.28;10486475;28;20495;-80
2022/07/24 10:18:16;;;;;;;0.30;0.30;;;;;;;27.03;56.51;101748.91;10482594;28;20086;-82
2022/07/24 10:23:20;;;;;;;0.40;0.20;;;;;;;27.00;55.18;101752.53;10493673;28;20044;-82
2022/07/24 10:28:37;;;;;;;0.38;0.25;;;;;;;27.42;52.04;101742.47;10493657;28;20041;-79
2022/07/24 10:33:41;;;;;;;0.20;0.17;;;;;;;27.45;49.31;101743.22;10486425;28;20136;-82
2022/07/24 10:38:55;;;;;;;0.10;0.10;;;;;;;27.31;50.28;101740.13;10481779;28;20048;-81
2022/07/24 10:44:17;;;;;;;0.30;0.20;;;;;;;27.35;52.44;101739.13;10489960;28;20106;-83
2022/07/24 10:49:38;;;;;;;0.13;0.13;;;;;;;28.12;57.21;101731.34;10492215;28;20063;-82
2022/07/24 10:54:41;;;;;;;0.35;0.35;;;;;;;27.44;57.45;101728.25;10488790;28;20123;-81
2022/07/24 10:59:43;;;;;;;0.10;0.10;;;;;;;27.69;54.27;101724.84;10486533;28;20037;-83
2022/07/24 11:04:45;;;;;;;0.45;0.10;;;;;;;28.39;53.41;101715.41;10470482;28;20139;-81
2022/07/24 11:09:56;;;;;;;0.20;0.20;;;;;;;28.21;56.13;101710.75;10478789;28;20663;-81
2022/07/24 11:20:34;;;;;;;0.25;0.25;;;;;;;27.88;52.21;101708.34;10486969;28;20048;-81
2022/07/24 11:25:35;;;;;;;0.05;0.05;;;;;;;28.57;52.68;101708.53;10482769;28;20044;-81
2022/07/24 11:30:42;;;;;;;0.00;0.00;;;;;;;28.56;47.11;101705.97;10498127;28;20052;-82
2022/07/24 11:35:45;;;;;;;1.27;0.20;;;;;;;29.44;51.10;101692.84;10471389;28;20510;-82
2022/07/24 11:40:46;;;;;;;0.00;0.00;;;;;;;28.30;54.50;101699.81;10492728;28;20051;-82
2022/07/24 11:45:52;;;;;;;0.05;0.05;;;;;;;28.50;51.34;101697.28;10491978;28;20043;-82
2022/07/24 11:51:05;;;;;;;0.30;0.20;;;;;;;28.36;54.69;101685.50;10492632;28;20144;-80
2022/07/24 11:56:30;;;;;;;0.00;0.00;;;;;;;28.58;52.53;101694.38;10497699;28;20041;-81
2022/07/24 12:01:31;;;;;;;0.75;0.20;;;;;;;28.88;49.95;101682.66;10498905;28;20059;-81
2022/07/24 12:06:33;;;;;;;0.47;0.30;;;;;;;28.60;51.95;101681.06;10489804;28;20043;-81
2022/07/24 12:11:35;;;;;;;0.32;0.20;;;;;;;29.22;52.12;101673.38;10493425;28;20048;-81
2022/07/24 12:16:37;;;;;;;0.45;0.35;;;;;;;28.91;56.46;101671.94;10482266;28;20412;-81
2022/07/24 12:21:38;;;;;;;0.32;0.22;;;;;;;28.79;52.96;101671.50;10484629;28;20051;-80
2022/07/24 12:26:58;;;;;;;1.30;0.60;;;;;;;28.62;53.63;101663.31;10490205;28;20036;-81
2022/07/24 12:32:18;;;;;;;0.22;0.22;;;;;;;28.58;50.03;101659.03;10493602;28;20056;-82
2022/07/24 12:37:21;;;;;;;1.05;0.65;;;;;;;28.53;53.93;101647.75;10497670;28;20119;-81
2022/07/24 12:42:31;;;;;;;0.30;0.20;;;;;;;29.18;54.15;101635.50;10494968;28;20052;-81
2022/07/24 12:47:52;;;;;;;0.63;0.45;;;;;;;29.47;52.30;101641.41;10487338;28;20040;-81
2022/07/24 12:53:06;;;;;;;0.10;0.10;;;;;;;29.36;51.94;101628.59;10475333;28;20078;-81
2022/07/24 12:58:08;;;;;;;0.10;0.10;;;;;;;29.24;52.57;101629.94;10485500;28;20044;-81
2022/07/24 13:03:10;;;;;;;0.20;0.20;;;;;;;29.50;53.30;101620.03;10497723;28;20122;-81
2022/07/24 13:08:14;;;;;;;0.20;0.20;;;;;;;29.67;53.11;101610.47;10493503;28;20059;-80
2022/07/24 13:13:16;;;;;;;0.30;0.25;;;;;;;29.53;54.34;101606.63;10492905;28;20449;-81
2022/07/24 13:18:18;;;;;;;0.40;0.40;;;;;;;29.60;50.60;101599.25;10494945;28;20045;-81
2022/07/24 13:23:19;;;;;;;0.20;0.15;;;;;;;28.63;50.35;101596.13;10491315;28;20087;-80
2022/07/24 13:28:21;;;;;;;0.20;0.17;;;;;;;29.07;52.44;101595.28;10474198;28;20052;-80
2022/07/24 13:33:22;;;;;;;2.80;1.58;;;;;;;29.17;56.18;101590.44;10490863;28;20044;-82
2022/07/24 13:38:24;;;;;;;0.10;0.10;;;;;;;29.04;54.03;101574.19;10470068;28;20037;-81
2022/07/24 13:43:26;;;;;;;0.10;0.10;;;;;;;28.87;52.93;101578.41;10479346;28;20049;-81
2022/07/24 13:48:27;;;;;;;0.10;0.10;;;;;;;29.47;50.89;101566.22;10492964;28;20160;-80
2022/07/24 13:53:29;;;;;;;0.00;0.00;;;;;;;28.75;53.91;101562.97;10480241;28;20385;-80
2022/07/24 13:58:31;;;;;;;0.45;0.13;;;;;;;29.41;52.02;101552.28;10484591;28;20056;-82
2022/07/24 14:03:34;;;;;;;0.10;0.00;;;;;;;29.04;51.66;101537.91;10493771;28;20048;-80
2022/07/24 14:08:44;;;;;;;0.50;0.40;;;;;;;29.15;52.22;101533.94;10456112;28;20045;-81
2022/07/24 14:13:46;;;;;;;0.03;0.03;;;;;;;29.70;53.63;101526.25;10487035;28;20048;-81
2022/07/24 14:18:48;;;;;;;0.10;0.10;;;;;;;29.07;55.04;101523.66;10464547;28;20131;-81
2022/07/24 14:23:50;;;;;;;0.00;0.00;;;;;;;29.47;55.09;101518.44;10486743;28;20125;-80
2022/07/24 14:28:52;;;;;;;0.00;0.00;;;;;;;29.00;54.88;101512.47;10492629;28;20045;-81
2022/07/24 14:33:53;;;;;;;0.05;0.05;;;;;;;29.15;52.88;101502.13;10492013;28;20059;-80
2022/07/24 14:38:55;;;;;;;0.30;0.13;;;;;;;29.13;55.34;101502.16;10490819;28;20484;-80
2022/07/24 14:43:56;;;;;;;0.10;0.10;;;;;;;29.00;54.60;101493.00;10481201;28;20048;-80
2022/07/24 14:49:08;;;;;;;0.20;0.10;;;;;;;29.18;54.70;101489.59;10483210;28;20043;-81
2022/07/24 14:54:10;;;;;;;0.40;0.30;;;;;;;29.01;54.85;101477.03;10484269;28;20044;-81
2022/07/24 14:59:12;;;;;;;0.10;0.10;;;;;;;29.50;56.28;101467.88;10495680;28;20403;-81
2022/07/24 15:04:22;;;;;;;0.10;0.10;;;;;;;28.98;56.54;101461.25;10489177;28;20040;-81
2022/07/24 15:09:24;;;;;;;0.20;0.17;;;;;;;29.13;55.62;101460.59;10495145;28;20041;-81
2022/07/24 15:14:25;;;;;;;0.28;0.28;;;;;;;29.09;56.58;101450.19;10492695;28;20051;-81
2022/07/24 15:19:27;;;;;;;0.40;0.10;;;;;;;29.57;56.50;101434.81;10491795;28;20048;-80
2022/07/24 15:24:30;;;;;;;0.15;0.15;;;;;;;29.04;56.05;101439.75;10497014;28;20044;-80
2022/07/24 15:29:31;;;;;;;0.30;0.20;;;;;;;29.27;56.74;101429.94;10483406;28;20040;-80
2022/07/24 15:34:33;;;;;;;0.00;0.00;;;;;;;29.43;55.77;101428.34;10480541;28;20059;-80
2022/07/24 15:39:35;;;;;;;0.00;0.00;;;;;;;29.20;54.61;101425.81;10495536;28;20045;-80
2022/07/24 15:44:39;;;;;;;0.52;0.40;;;;;;;29.15;55.73;101422.53;10487800;28;20051;-80
2022/07/24 15:49:41;;;;;;;0.00;0.00;;;;;;;29.56;58.09;101412.69;10486881;28;20048;-80
2022/07/24 15:54:42;;;;;;;0.30;0.20;;;;;;;29.36;55.96;101407.44;10492301;28;20262;-81
2022/07/24 15:59:44;;;;;;;0.00;0.00;;;;;;;29.27;57.22;101400.75;10491082;28;20040;-80
2022/07/24 16:04:45;;;;;;;0.50;0.30;;;;;;;29.45;55.66;101396.41;10495912;28;20048;-80
2022/07/24 16:09:49;;;;;;;0.47;0.20;;;;;;;29.26;57.36;101389.28;10503915;28;20079;-81
2022/07/24 16:14:51;;;;;;;0.10;0.10;;;;;;;29.34;57.60;101381.00;10497002;28;20538;-81
2022/07/24 16:20:07;;;;;;;0.17;0.10;;;;;;;29.32;57.70;101376.69;10496068;28;20044;-81
2022/07/24 16:25:09;;;;;;;0.10;0.10;;;;;;;29.21;55.29;101375.34;10498497;28;20468;-81
2022/07/24 16:30:11;;;;;;;0.00;0.00;;;;;;;29.67;59.39;101361.78;10496967;28;20109;-81
2022/07/24 16:35:12;;;;;;;1.58;0.20;;;;;;;29.53;61.13;101356.22;10493399;28;20514;-81
2022/07/24 16:40:20;;;;;;;0.00;0.00;;;;;;;29.13;57.73;101357.13;10477434;28;20090;-79
2022/07/24 16:45:26;;;;;;;0.10;0.10;;;;;;;29.52;59.19;101343.91;10492229;28;20392;-81
2022/07/24 16:50:42;;;;;;;0.10;0.10;;;;;;;29.27;57.97;101331.75;10488434;28;20036;-81
2022/07/24 16:55:43;;;;;;;0.15;0.00;;;;;;;29.18;57.18;101327.75;10500954;28;20037;-80
2022/07/24 17:00:45;;;;;;;0.20;0.20;;;;;;;29.43;58.18;101316.00;10490588;28;20041;-81
2022/07/24 17:05:47;;;;;;;0.10;0.05;;;;;;;29.20;60.12;101314.41;10482352;28;20041;-81
2022/07/24 17:10:48;;;;;;;0.08;0.08;;;;;;;28.97;59.33;101329.56;10476763;28;20045;-81
2022/07/24 17:15:51;;;;;;;0.30;0.17;;;;;;;29.01;58.44;101320.53;10484021;28;20150;-81
2022/07/24 17:21:07;;;;;;;0.03;0.03;;;;;;;29.06;61.88;101317.66;10499417;28;20048;-81
2022/07/24 17:26:09;;;;;;;0.00;0.00;;;;;;;29.18;57.41;101310.94;10485360;28;20093;-81
2022/07/24 17:31:12;;;;;;;0.20;0.20;;;;;;;28.94;58.88;101311.13;10513860;28;20487;-82
2022/07/24 17:36:21;;;;;;;0.00;0.00;;;;;;;28.76;59.26;101305.75;10523103;28;20048;-81
2022/07/24 17:41:22;;;;;;;0.30;0.10;;;;;;;28.66;63.16;101288.47;10528078;28;20036;-80
2022/07/24 17:46:24;;;;;;;0.00;0.00;;;;;;;28.65;64.97;101292.06;10497364;28;20041;-82
2022/07/24 17:51:28;;;;;;;0.20;0.20;;;;;;;28.63;64.43;101293.94;10497211;28;20123;-81
2022/07/24 17:56:30;;;;;;;0.20;0.20;;;;;;;28.58;62.87;101285.31;10485660;28;20032;-81
2022/07/24 18:01:31;;;;;;;0.25;0.13;;;;;;;28.50;67.94;101283.00;10488341;28;20039;-81
2022/07/24 18:06:33;;;;;;;0.22;0.22;;;;;;;28.50;69.58;101278.53;10498709;28;20037;-82
2022/07/24 18:11:35;;;;;;;0.70;0.38;;;;;;;28.39;67.28;101279.94;10489234;28;20118;-81
2022/07/24 18:16:36;;;;;;;0.32;0.32;;;;;;;28.29;68.55;101275.06;10497786;28;20045;-82
2022/07/24 18:21:38;;;;;;;0.03;0.03;;;;;;;28.15;68.71;101283.59;10472561;28;20053;-81
2022/07/24 18:26:40;;;;;;;0.22;0.20;;;;;;;28.06;70.05;101277.81;10480011;28;20051;-81
2022/07/24 18:31:47;;;;;;;0.38;0.15;;;;;;;28.15;71.81;101283.59;10492168;28;20496;-81
2022/07/24 18:36:50;;;;;;;1.35;0.22;;;;;;;28.09;72.41;101272.38;10478231;28;20042;-81
2022/07/24 18:41:51;;;;;;;0.00;0.00;;;;;;;27.96;74.85;101272.00;10490698;28;20056;-81
2022/07/24 18:46:54;;;;;;;0.00;0.00;;;;;;;27.63;100.00;101272.44;10494077;28;20045;-81
2022/07/24 18:51:56;;;;;;;0.03;0.00;;;;;;;27.39;100.00;101278.63;10487778;28;20511;-81
2022/07/24 18:57:00;;;;;;;0.08;0.08;;;;;;;27.02;100.00;101273.88;10476258;28;20049;-81
2022/07/24 19:02:01;;;;;;;1.35;0.20;;;;;;;26.92;100.00;101274.19;10496524;28;20385;-81
2022/07/24 19:07:08;;;;;;;0.08;0.00;;;;;;;26.86;100.00;101274.44;10485674;28;20076;-81
2022/07/24 19:12:09;;;;;;;0.05;0.05;;;;;;;26.44;100.00;101280.31;10488339;28;20044;-82
2022/07/24 19:17:11;;;;;;;0.55;0.20;;;;;;;26.15;100.00;101283.94;10487553;28;20044;-82
2022/07/24 19:22:13;;;;;;;0.38;0.30;;;;;;;25.95;100.00;101280.16;10490752;28;20440;-82
2022/07/24 19:27:14;;;;;;;0.05;0.05;;;;;;;25.64;100.00;101282.00;10488352;28;20041;-82
2022/07/24 19:32:16;;;;;;;0.10;0.10;;;;;;;25.65;100.00;101274.94;10477821;28;20049;-81
2022/07/24 19:37:19;;;;;;;0.00;0.00;;;;;;;25.44;100.00;101279.09;10486703;28;20131;-82
2022/07/24 19:42:24;;;;;;;0.10;0.10;;;;;;;25.22;100.00;101277.09;10489738;28;20102;-82
2022/07/24 19:47:26;;;;;;;0.10;0.10;;;;;;;25.12;100.00;101258.03;10485011;28;20063;-81
2022/07/24 19:52:29;;;;;;;1.85;1.45;;;;;;;24.87;100.00;101268.44;10481927;28;20131;-82
2022/07/24 19:57:31;;;;;;;0.25;0.10;;;;;;;24.55;100.00;101278.03;10480132;28;20041;-80
2022/07/24 20:02:33;;;;;;;0.03;0.03;;;;;;;24.31;100.00;101269.03;10499986;28;20044;-80
2022/07/24 20:07:35;;;;;;;0.30;0.30;;;;;;;24.40;100.00;101259.13;10475272;28;20475;-81
2022/07/24 20:12:37;;;;;;;0.77;0.47;;;;;;;24.40;100.00;101268.78;10500069;28;20393;-80
2022/07/24 20:17:39;;;;;;;0.10;0.10;;;;;;;24.26;100.00;101258.63;10466739;28;20044;-79
2022/07/24 20:22:41;;;;;;;0.00;0.00;;;;;;;24.14;100.00;101272.09;10455150;28;20045;-79
2022/07/24 20:27:45;;;;;;;0.17;0.10;;;;;;;23.59;100.00;101270.72;10486475;28;20439;-79
2022/07/24 20:32:47;;;;;;;0.10;0.10;;;;;;;23.24;100.00;101271.50;10492314;28;20048;-80
2022/07/24 20:37:49;;;;;;;0.28;0.20;;;;;;;23.47;100.00;101264.88;10489133;28;20041;-80
2022/07/24 20:42:51;;;;;;;0.55;0.47;;;;;;;23.22;100.00;101261.00;10482050;28;20597;-80
2022/07/24 20:47:53;;;;;;;0.28;0.20;;;;;;;23.18;100.00;101255.84;10486845;28;20041;-80
2022/07/24 20:52:57;;;;;;;0.20;0.20;;;;;;;22.93;100.00;101253.69;10472741;28;20060;-80
2022/07/24 20:57:58;;;;;;;0.32;0.30;;;;;;;22.63;100.00;101240.25;10457165;28;20049;-79
2022/07/24 21:03:00;;;;;;;1.77;1.05;;;;;;;23.11;100.00;101231.41;10493899;28;20032;-80
2022/07/24 21:08:02;;;;;;;3.20;0.60;;;;;;;23.20;100.00;101218.13;10479462;28;20044;-80
2022/07/24 21:13:05;;;;;;;0.35;0.20;;;;;;;23.37;100.00;101209.00;10495927;28;20044;-80
2022/07/24 21:18:07;;;;;;;0.75;0.60;;;;;;;23.67;100.00;101193.41;10494238;28;20527;-80
2022/07/24 21:23:08;;;;;;;0.40;0.40;;;;;;;23.87;100.00;101179.72;10504274;28;20048;-81
2022/07/24 21:28:11;;;;;;;0.50;0.35;;;;;;;24.05;100.00;101179.31;10504271;28;20048;-80
2022/07/24 21:33:13;;;;;;;0.38;0.38;;;;;;;23.81;100.00;101174.63;10487455;28;20132;-80
2022/07/24 21:38:19;;;;;;;0.60;0.43;;;;;;;23.57;100.00;101176.97;10506947;28;20106;-80
2022/07/24 21:43:24;;;;;;;0.73;0.68;;;;;;;23.14;100.00;101173.56;10517808;28;20071;-81
2022/07/24 21:48:25;;;;;;;0.20;0.20;;;;;;;23.01;100.00;101175.56;10495824;28;20052;-81
2022/07/24 21:53:30;;;;;;;0.40;0.30;;;;;;;22.99;100.00;101166.84;10501879;28;20063;-80
2022/07/24 21:58:32;;;;;;;5.15;0.93;;;;;;;22.95;100.00;101163.44;10496037;28;20040;-80
2022/07/24 22:03:34;;;;;;;0.52;0.40;;;;;;;23.38;100.00;101150.28;10486644;28;20501;-80
2022/07/24 22:08:36;;;;;;;0.40;0.30;;;;;;;23.41;100.00;101148.44;10479155;28;20040;-80
2022/07/24 22:13:37;;;;;;;0.35;0.35;;;;;;;23.39;100.00;101144.09;10478583;28;20056;-80
2022/07/24 22:18:39;;;;;;;0.73;0.35;;;;;;;23.13;100.00;101143.75;10486383;28;20049;-80
2022/07/24 22:23:41;;;;;;;0.43;0.40;;;;;;;22.96;100.00;101140.66;10454111;28;20040;-80
2022/07/24 22:28:42;;;;;;;0.30;0.30;;;;;;;22.73;100.00;101135.88;10496832;28;20439;-80
2022/07/24 22:33:44;;;;;;;0.20;0.20;;;;;;;22.27;100.00;101142.91;10504939;28;20044;-80
2022/07/24 22:38:49;;;;;;;0.38;0.38;;;;;;;21.91;100.00;101147.94;10494927;28;20039;-80
2022/07/24 22:43:51;;;;;;;0.30;0.17;;;;;;;21.59;100.00;101160.72;10532231;28;20043;-80
2022/07/24 22:48:53;;;;;;;0.80;0.25;;;;;;;21.26;100.00;101162.06;10476865;28;20041;-80
2022/07/24 22:53:56;;;;;;;0.47;0.28;;;;;;;21.16;100.00;101153.44;10486397;28;20049;-80
2022/07/24 22:59:01;;;;;;;0.32;0.28;;;;;;;21.17;100.00;101150.81;10470664;28;20086;-80
2022/07/24 23:04:03;;;;;;;0.45;0.20;;;;;;;21.12;100.00;101151.75;10487134;28;20523;-80
2022/07/24 23:09:05;;;;;;;1.42;0.30;;;;;;;20.72;100.00;101153.13;10492130;28;20040;-80